Ruben Elyounoussi

Recruteur en chef - Stromsgodset
21 Oct 2027
Jeudi
Processus

Personnalité

Adaptabilité (12) Ambition (19) Controverse (19) Loyauté (19) Pression (3) Professionnalisme (12) Sportivité (3) Tempérament (10)

Profil

Style d'entraînement Démocratique
Diplôme Continental A
Détermination 12
Gestion des joueurs 4
Motivation 9
Discipline 8
Satisfaction professionnelle
90%
Fatigue
0%
Rôle Recruteur en chef
Salaire 55.1K p/s
Contrat 14.03.2030

Performance

Comportement Bon
Efficacité de l'entraînement
32%
Développement des joueurs
20%
Prévention des blessures
50%
Mise en place tactique
30%

Événements récents

A participé à une réunion de recrutement maintenant
A recommandé une cible de transfert maintenant
A recommandé une cible de transfert maintenant
A participé à une réunion de recrutement maintenant
A recommandé une cible de transfert maintenant
A recommandé une cible de transfert maintenant
A recommandé une cible de transfert maintenant
A recommandé une cible de transfert 7j

Suivi en cours

78
Joueur Club Statut Capacité Confiance Observé Dernière observation Dernier vote
Bradley Phiri LNZ Actif 112 / 112 66% 1 16.07.2027 Approuver
Goga Kobiashvili Veres Actif 92 / 92 66% 1 16.07.2027 Approuver
Shota Shekiladze Akhmat Grozny Actif 110 / 110 66% 1 16.07.2027 Approuver
Aljoša Matko Viborg Négociation 117 / 117 66% 1 16.07.2027 Approuver
Keagan Mothiba Altach Négociation 112 / 116 66% 1 16.07.2027 Approuver
Vegar Eggen Hedenstad Valerenga Perdu 101 / 102 62% 1 16.07.2027 -
Adam Idah Swansea City Actif 112 / 119 40% 1 15.07.2027 -
Stephen Humphrys Bradford City Actif 118 / 114 40% 1 15.07.2027 -
Marcus Melchior Sandefjord Actif 111 / 111 30% 1 / 1m 14.07.2027 -
Aaron Collins Milton Keynes Dons Actif 113 / 113 40% 5 13.07.2027 -
Niall Ennis Blackpool Actif 117 / 108 40% 1 13.07.2027 -
Bojan Radulović Huddersfield Town Actif 123 / 120 40% 2 12.07.2027 -
Christian Saydee Wigan Athletic Actif 112 / 113 40% 3 12.07.2027 -
Tyreece Campbell Charlton Athletic Actif 134 / 129 40% 2 11.07.2027 -
Rhian Brewster Oxford United Actif 125 / 115 40% 2 11.07.2027 -
Elijah Adebayo Luton Town Actif 113 / 121 40% 2 09.07.2027 -
Kwame Opoku Asante Kotoko Actif 96 / 102 40% 1 09.07.2027 -
Yousef Salech Cardiff City Actif 127 / 122 40% 1 06.07.2027 -
Peter Shalulile Mamelodi Sundowns Actif 132 / 133 40% 2 19.06.2027 -
Lorent Tolaj Plymouth Argyle Actif 124 / 130 40% 1 19.06.2027 -
Iwan Morgan Grimsby Town Actif 99 / 109 40% 3 14.06.2027 -
Patson Daka Leicester City Actif 141 / 116 40% 1 14.06.2027 -
Dom Ballard Leyton Orient Actif 118 / 118 40% 1 13.06.2027 -
Oli McBurnie Hull City Actif 134 / 127 40% 4 11.06.2027 -
Mees Rijks Bristol Rovers Actif 117 / 121 40% 1 11.06.2027 -
Richard Koné Queens Park Rangers Actif 111 / 131 40% 2 09.06.2027 -
Harry Cornick AFC Wimbledon Actif 109 / 113 40% 1 09.06.2027 -
Josh Windass Wrexham Actif 132 / 132 40% 1 07.06.2027 -
Harry Leonard Peterborough United Actif 109 / 109 40% 2 31.05.2027 -
Lewis McCann Fleetwood Town Actif 100 / 103 40% 1 31.05.2027 -
Lee Bonis Chesterfield Actif 117 / 104 40% 1 24.05.2027 -
Lewis Morgan SuperSport United Actif 134 / 127 40% 2 23.05.2027 -
Jordan Roberts Stevenage Actif 101 / 99 40% 1 23.05.2027 -
Jayden Wareham Barnet Actif 95 / 100 40% 1 19.05.2027 -
Bertrand Traoré Sunderland Actif 140 / 136 40% 2 15.05.2027 -
Robert Mizo Ashanti Gold Actif 105 / 96 40% 1 15.05.2027 -
Tyrese Campbell Sheffield United Actif 132 / 120 40% 1 10.05.2027 -
Fredrik Pedersen Sandefjord Actif 111 / 114 30% 1 / 1m 05.05.2027 -
Mathias Grundetjern Valerenga Actif 117 / 114 62% 1 22.03.2027 Approuver
Sory Diarra Haugesund Actif 110 / 112 62% 1 08.03.2027 Approuver
Evidence Makgopa Orlando Pirates Actif 114 / 103 40% 1 31.01.2027 -
Edarlyn Reyes Arsenal Tula Actif 105 / 116 40% 1 31.01.2027 -
Tshepang Moremi Orlando Pirates Actif 131 / 104 40% 4 30.01.2027 Observer
Williams Manyama SuperSport United Actif 117 / 125 40% 3 30.01.2027 -
Ole-Didrik Blomberg Bodo/Glimt Actif 131 / 126 40% 4 28.01.2027 -
Anderson Arroyo Rubin Actif 126 / 119 40% 2 28.01.2027 -
Álex Centelles Levski Actif 116 / 137 40% 3 19.01.2027 -
Simon Ramabu Polokwane City Actif 92 / 102 40% 3 11.01.2027 -
Hakim Sulemana Medeama Actif 110 / 111 40% 1 11.01.2027 -
Reda Khadra Qarabag Actif 117 / 121 40% 4 07.01.2027 -
José Martínes CSKA 1948 Actif 94 / 113 40% 1 07.01.2027 -
Petar Stanić Ludogorets Actif 131 / 129 40% 3 01.01.2027 -
Mandla Erasmus SuperSport United Actif 113 / 116 40% 3 01.01.2027 -
Ruben van Bommel Ferencvaros Actif 129 / 125 40% 5 29.12.2026 -
Suleiman Camara Slovan Bratislava Actif 112 / 129 40% 1 29.12.2026 -
Emil Ceïde Rosenborg Actif 120 / 125 40% 2 21.12.2026 -
Caleb Zady Sery Molde Actif 124 / 111 40% 3 15.12.2026 -
Oswin Appollis Orlando Pirates Actif 134 / 111 40% 1 06.12.2026 -
Peter Christiansen Viking Actif 121 / 122 40% 4 05.12.2026 -
Aimar Sher Sarpsborg 08 Actif 122 / 128 40% 3 04.12.2026 -
Daniel Karlsbakk Sarpsborg 08 Actif 132 / 132 40% 2 30.11.2026 -
Everton Bala Levski Actif 142 / 135 40% 1 29.11.2026 -
Mduduzi Shabalala Kaizer Chiefs Actif 122 / 112 40% 1 25.11.2026 -
Daniel Kyerewaa Reading Actif 108 / 110 40% 1 18.11.2026 -
Marcelo Allende Mamelodi Sundowns Actif 122 / 124 40% 2 17.11.2026 -
Siyanda Ndlovu Bloemfontein Celtic Actif 120 / 111 40% 1 17.11.2026 -
George Earthy Reading Actif 130 / 113 40% 1 13.11.2026 -
Bongani Modiba Black Aces Actif 124 / 121 40% 1 13.11.2026 -
Jakob Dunsby Sandefjord Actif 125 / 114 40% 2 09.11.2026 -
Markus Karlsbakk Lillestrom Actif 109 / 110 40% 1 08.11.2026 -
Rodrigo González Aldosivi Actif 134 / 119 40% 1 06.11.2026 -
Jack Currie Oxford United Actif 125 / 113 40% 1 05.11.2026 -
Ola Brynhildsen Bodo/Glimt Actif 123 / 131 40% 1 05.11.2026 -
Daniel Bassi Lillestrom Actif 112 / 132 40% 1 04.11.2026 -
Ieltsin Camões Tromso Actif 110 / 106 40% 1 02.11.2026 -
Brice Ambina Valerenga Actif 122 / 119 40% 1 02.11.2026 -
Karim Adeyemi Barcelona Actif 161 / 160 40% 1 01.08.2026 -
Gabriel Jesus Barcelona Actif 137 / 151 40% 1 01.08.2026 -